Racecast

Katelyn Philpot

Palmer Ridge (CO) · 12 · PIKES PEAK ATHLETICCO D4A4A · Compare head to head

Athlete rating 134.6 2024 TF season
Best race 135.6 TF
Races 63
Seasons 5 2020 — 2024

RankedNation #1063·CO #56·CO D4A #34·PIKES PEAK ATHLETIC #9·Team #2 ?

Speed rating — all races

Cross Country

XC speed rating

2023 XC 122.1

Palmer Ridge (CO) · Grade 12

Date Meet Event Result Place Rating Difficulty PR/SR Flags
2023-11-18 Coyote Run Golf Course at Leisure World 5000m 21:03.5 50th · 4th on team 121.1 +0.029 CSR
2023-10-19 Salisbury Regional Park 5000m 21:35 19th · 4th on team 121.3 +0.050 ★CR CSR
2023-09-23 Rim Rock Farm 5000m 20:55.2 91st · 3rd on team 122.1 +0.024 ★CR CSR
2023-09-09 Heritage High School 5000m 20:15.2 9th · 1st on team 124.1 -0.001 ★PR ★CR SR CSR RSR
2023-08-25 Norris Penrose Event Center 5000m 21:25.4 12th · 2nd on team 122.1 +0.067 ★CR SR CSR RSR

2022 XC 119.1

Palmer Ridge (CO) · Grade 11

Date Meet Event Result Place Rating Difficulty PR/SR Flags
2022-11-19 Coyote Run Golf Course at Leisure World 5000m 20:37.3 36th · 2nd on team 124.5 +0.029 ★CR CSR RSR
2022-10-20 Julia deKoevend Park 5000m 22:03 27th · 1st on team 119.4 +0.054 ★CR CSR RSR
2022-10-07 Bear Creek Regional Park 5000m 22:24.5 42nd · 3rd on team 115.3 +0.043 ★CR CSR
2022-09-10 Heritage High School 5000m 20:36.8 45th · 1st on team 117.7 -0.001 PR CR SR CSR
2022-09-02 Norris Penrose Event Center 5000m 22:24.7 62nd · 1st on team 118.8 +0.067 CR SR CSR RSR

2021 XC 114.6

Palmer Ridge (CO) · Grade 10

Date Meet Event Result Place Rating Difficulty PR/SR Flags
2021-11-20 Shalimar Country Club 5000m 21:19.8 65th · 1st on team 118.3 +0.005 PR ★CR SR CSR
2021-10-21 Monument Valley Park 5000m 21:39.2 29th · 3rd on team 119.1 +0.031 PR ★CR R SR CSR RSR
2021-10-08 Monument Valley Park 5000m 22:38 3rd · 1st on team 114.5 +0.031 CR CSR RSR
2021-10-01 Bear Creek Regional Park East 5000m 22:27 9th · 1st on team 113.1 +0.011 PR ★CR SR CSR
2021-09-18 Air Academy High School 5000m 23:29.5 2nd · 1st on team 113.9 +0.060 ★CR CSR RSR
2021-09-11 Heritage High School 5000m 22:57.1 10th · 2nd on team 111.8 -0.001 CR SR CSR RSR
2021-08-20 Cottonwood Park West 5000m 24:28.2 47th · 6th on team 111.5 +0.090 ★CR SR CSR RSR

2020 XC 110.9

Palmer Ridge (CO) · Grade 9

Date Meet Event Result Place Rating Difficulty PR/SR Flags
2020-09-10 Norris Penrose Event Center 5000m 22:53.3 9th · 1st on team 115.5 +0.067 PR CR R SR CSR RSR
2020-09-04 Rampart High School 5000m 25:37.6 2nd · 2nd on team 106.4 +0.079 PR ★CR R SR CSR RSR

Track & Field

TF speed rating

2024 TF 129.8

Palmer Ridge (CO) · Grade 12

Date Meet Event Result Place Rating Difficulty PR/SR Flags
2024-05-18 COLORADO STATE CHAMPIONSHIPS 400m 58.19 17th · 2nd on team -0.011 PR SR
2024-05-18 COLORADO STATE CHAMPIONSHIPS 400m 57.68 10th · 1st on team -0.011 ★PR SR
2024-05-18 COLORADO STATE CHAMPIONSHIPS 800m 2:19.95 13th · 1st on team 134.6 -0.011
2024-05-11 Teddy's Last Chance Qualifier 400m 58.73 4th · 1st on team -0.014
2024-05-10 HOKA St. Vrain Invitational 800m 2:17.59 13th · 2nd on team 135.6 -0.015 ★PR ★R SR RSR
2024-04-30 Stutler Twilight Meet 800m 2:21.01 10th · 1st on team 132.7 -0.014 SR RSR
2024-04-29 Randall Hess Roughrider Invitational 400m 58.3 1st · 1st on team -0.014 PR SR
2024-04-11 Classical Academy Titan Invitational 800m 2:24.3 4th · 1st on team 132.2 +0.005 SR RSR
2024-04-11 Classical Academy Titan Invitational 1600m 5:44.47 9th · 1st on team 123.2 +0.005 ★PR SR
2024-03-23 84th NIKE Chandler Rotary Invitational 400m 1:00.57 17th · 1st on team -0.035 SR
2024-03-23 84th NIKE Chandler Rotary Invitational 800m 2:26.39 22nd · 1st on team 125.1 -0.035
2024-02-24 PEAK Pre-Season #2 800m 2:26.39 13th · 1st on team 128.4 -0.009 SR RSR
2024-02-17 Let's Get REAL Indoor Championship 800m 2:30.26 10th · 1st on team 127.0 -0.004 SR RSR
2024-01-14 Martin Luther King Jr. Mile Hi Classic 200m 27.56 23rd · 1st on team -0.004 SR
2024-01-14 Martin Luther King Jr. Mile Hi Classic 400m 1:01.42 5th · 1st on team -0.004 SR

2023 TF 130.3

Palmer Ridge (CO) · Grade 11

Date Meet Event Result Place Rating Difficulty PR/SR Flags
2023-05-20 Colorado 4A State Championships 800m 2:24.75 17th · 1st on team 129.8 -0.011
2023-05-20 Colorado 4A State Championships 400m 1:00.3 21st · 2nd on team -0.011
2023-05-20 Colorado 4A State Championships 400m 59.73 16th · 1st on team -0.011
2023-04-29 Stutler Twilight 800m 2:20.76 9th · 1st on team 133.4 -0.014 PR R SR RSR
2023-04-28 Ram Jam Classic 400m 1:01.27 1st · 1st on team +0.007
2023-04-08 Thunder-Storm Invitational 200m 27.13 4th · 1st on team -0.006
2023-04-08 Thunder-Storm Invitational 400m 59.59 1st · 1st on team -0.006
2023-04-01 NoCo Series #1 200m 27.08 12th · 1st on team -0.014 ★PR SR
2023-04-01 NoCo Series #1 400m 59.11 5th · 1st on team -0.014 PR SR
2023-03-22 Harrison Panther Invitational 200m 27.95 4th · 1st on team +0.000
2023-03-22 Harrison Panther Invitational 400m 1:00.42 1st · 1st on team +0.000 PR SR
2023-03-11 CSU-Pueblo Early-Bird 100m 13.57 13th · 1st on team -0.006 ★PR SR
2023-03-11 CSU-Pueblo Early-Bird 800m 2:28.72 3rd · 1st on team 127.6 -0.006 PR R SR RSR
2023-02-18 Let's Get REAL Invitational Championship 400m 1:01.9 6th · 4th on team -0.009 SR
2023-02-18 Let's Get REAL Invitational Championship 200m 27.31 10th · 5th on team -0.009
2023-02-18 Let's Get REAL Invitational Championship 60m 8.55 29th · 12th on team -0.009 ★PR SR
2023-02-04 Air Force HS Indoor 200m 27.18 27th · 7th on team -0.004 PR SR
2023-02-04 Air Force HS Indoor 400m 1:02.32 14th · 5th on team -0.004 SR

2022 TF 123.8

Palmer Ridge (CO) · Grade 10

Date Meet Event Result Place Rating Difficulty PR/SR Flags
2022-05-21 CHSSA State Championships 400m 1:01.31 25th · 1st on team -0.011
2022-05-13 St. Vrain HOKA Invitational 400m 1:00.94 15th · 1st on team -0.015 PR SR
2022-05-11 Colorado Springs All City Meet 400m 1:01.13 8th · 1st on team -0.004 PR SR
2022-05-11 Colorado Springs All City Meet 800m 2:30.8 8th · 1st on team 126.7 -0.004 PR R SR RSR
2022-05-07 Doherty Spartan Invitational 400m 1:01.78 5th · 1st on team -0.004 PR SR
2022-04-16 Fountain-Fort Carson Invitational 400m 1:02.95 8th · 3rd on team -0.004
2022-04-09 Mullen Invitational 200m 28.58 19th · 1st on team -0.014 PR SR
2022-04-09 Mullen Invitational 400m 1:02.75 11th · 1st on team -0.014
2022-04-08 Thomas Jefferson Twilight 800m 2:36.01 13th · 1st on team 121.0 -0.011 PR R SR RSR
2022-04-02 Altitude Invitational 400m 1:02.4 7th · 1st on team -0.009 PR SR

2021 TF

Palmer Ridge (CO) · Grade 9

Date Meet Event Result Place Rating Difficulty PR/SR Flags
2021-06-04 PPAC League Meet 1600m 6:30.86 17th · 3rd on team -0.004 PR SR